createdAt,value
2023-04-13T00:00:43.888Z,3.63
2023-04-13T00:03:13.615Z,3.00
2023-04-13T00:05:42.881Z,2.77
2023-04-13T00:08:12.160Z,3.47
2023-04-13T00:10:42.074Z,3.23
2023-04-13T00:13:11.966Z,3.53
2023-04-13T00:15:44.855Z,3.90
2023-04-13T00:18:14.039Z,4.27
2023-04-13T00:20:43.647Z,4.23
2023-04-13T00:23:12.792Z,3.93
2023-04-13T00:25:41.948Z,5.40
2023-04-13T00:28:11.784Z,5.20
2023-04-13T00:30:42.323Z,5.67
2023-04-13T00:33:11.712Z,6.33
2023-04-13T00:35:41.609Z,6.10
2023-04-13T00:38:11.552Z,6.23
2023-04-13T00:40:40.986Z,6.37
2023-04-13T00:43:10.113Z,6.23
2023-04-13T00:45:40.093Z,6.67
2023-04-13T00:48:11.670Z,5.87
2023-04-13T00:50:42.640Z,6.67
2023-04-13T00:53:13.531Z,6.40
2023-04-13T00:55:43.948Z,6.27
2023-04-13T00:58:14.225Z,6.40
2023-04-13T01:00:43.931Z,6.20
2023-04-13T01:03:14.604Z,6.67
2023-04-13T01:05:53.999Z,6.13
2023-04-13T01:08:30.949Z,6.43
2023-04-13T01:11:06.930Z,5.70
2023-04-13T01:13:43.343Z,5.00
2023-04-13T01:16:19.863Z,4.97
2023-04-13T01:18:54.328Z,4.47
2023-04-13T01:21:27.632Z,5.20
2023-04-13T01:24:10.019Z,4.67
2023-04-13T01:26:51.066Z,4.73
2023-04-13T01:29:21.859Z,5.17
2023-04-13T01:31:54.349Z,5.67
2023-04-13T01:34:24.809Z,5.03
2023-04-13T01:36:55.759Z,5.23
2023-04-13T01:39:26.811Z,4.80
2023-04-13T01:42:03.933Z,5.07
2023-04-13T01:44:36.644Z,5.03
2023-04-13T01:47:16.245Z,4.97
2023-04-13T01:50:13.260Z,4.93
2023-04-13T01:53:07.830Z,4.87
2023-04-13T01:55:41.877Z,5.07
2023-04-13T01:58:15.242Z,4.87
2023-04-13T02:00:49.885Z,6.20
2023-04-13T02:03:19.065Z,4.87
2023-04-13T02:05:48.310Z,4.83
2023-04-13T02:08:18.517Z,5.80
2023-04-13T02:10:49.287Z,5.50
2023-04-13T02:13:18.489Z,6.10
2023-04-13T02:15:49.214Z,5.60
2023-04-13T02:18:18.477Z,6.20
2023-04-13T02:20:47.737Z,5.20
2023-04-13T02:23:17.775Z,5.90
2023-04-13T02:25:48.216Z,5.90
2023-04-13T02:28:18.684Z,6.07
2023-04-13T02:30:51.068Z,5.80
2023-04-13T02:33:21.494Z,5.37
2023-04-13T02:35:51.946Z,5.30
2023-04-13T02:38:21.292Z,6.50
2023-04-13T02:40:56.646Z,5.40
2023-04-13T02:43:26.345Z,4.90
2023-04-13T02:45:57.635Z,5.23
2023-04-13T02:48:31.126Z,7.77
2023-04-13T02:51:01.078Z,6.03
2023-04-13T02:53:33.572Z,6.43
2023-04-13T02:56:09.504Z,5.77
2023-04-13T02:58:39.360Z,5.70
2023-04-13T03:01:16.210Z,6.33
2023-04-13T03:03:45.704Z,6.13
2023-04-13T03:06:15.126Z,6.63
2023-04-13T03:08:48.581Z,7.33
2023-04-13T03:11:23.340Z,5.80
2023-04-13T03:14:01.485Z,6.13
2023-04-13T03:16:32.322Z,6.73
2023-04-13T03:19:02.262Z,6.43
2023-04-13T03:21:34.377Z,6.67
2023-04-13T03:24:12.332Z,5.90
2023-04-13T03:26:41.595Z,7.10
2023-04-13T03:29:16.100Z,6.50
2023-04-13T03:31:48.994Z,6.43
2023-04-13T03:34:18.455Z,6.57
2023-04-13T03:36:49.322Z,6.43
2023-04-13T03:39:21.657Z,5.87
2023-04-13T03:41:50.819Z,6.80
2023-04-13T03:44:20.676Z,6.50
2023-04-13T03:46:51.274Z,5.87
2023-04-13T03:49:27.189Z,6.23
2023-04-13T03:51:56.268Z,7.13
2023-04-13T03:54:25.798Z,7.27
2023-04-13T03:56:55.410Z,6.93
2023-04-13T03:59:24.518Z,6.50
2023-04-13T04:01:56.590Z,7.30
2023-04-13T04:04:25.815Z,6.33
2023-04-13T04:06:55.906Z,6.17
2023-04-13T04:09:26.128Z,6.30
2023-04-13T04:11:56.714Z,6.23
2023-04-13T04:14:40.219Z,6.70
2023-04-13T04:17:24.187Z,8.20
2023-04-13T04:19:53.813Z,6.37
2023-04-13T04:22:29.834Z,7.53
2023-04-13T04:25:00.350Z,6.37
2023-04-13T04:27:29.719Z,7.07
2023-04-13T04:30:05.392Z,7.53
2023-04-13T04:32:40.585Z,7.30
2023-04-13T04:35:16.374Z,7.30
2023-04-13T04:37:52.842Z,7.47
2023-04-13T04:40:22.435Z,8.07
2023-04-13T04:42:52.623Z,7.63
2023-04-13T04:45:32.966Z,7.23
2023-04-13T04:48:05.478Z,7.90
2023-04-13T04:50:34.860Z,7.83
2023-04-13T04:53:14.046Z,6.67
2023-04-13T04:55:43.570Z,7.23
2023-04-13T04:58:20.676Z,7.53
2023-04-13T05:00:56.700Z,6.87
2023-04-13T05:03:27.327Z,7.43
2023-04-13T05:06:07.018Z,8.07
2023-04-13T05:08:36.314Z,7.63
2023-04-13T05:11:08.301Z,6.87
2023-04-13T05:13:38.297Z,7.27
2023-04-13T05:16:16.370Z,6.93
2023-04-13T05:18:48.511Z,8.20
2023-04-13T05:21:35.495Z,6.27
2023-04-13T05:24:05.116Z,6.67
2023-04-13T05:26:35.158Z,7.30
2023-04-13T05:29:04.645Z,6.57
2023-04-13T05:31:37.963Z,8.53
2023-04-13T05:34:08.630Z,7.10
2023-04-13T05:36:39.581Z,8.70
2023-04-13T05:39:13.865Z,8.20
2023-04-13T05:41:43.010Z,7.43
2023-04-13T05:44:12.292Z,5.97
2023-04-13T05:46:42.002Z,7.10
2023-04-13T05:49:12.490Z,6.50
2023-04-13T05:51:42.069Z,6.23
2023-04-13T05:54:11.698Z,6.17
2023-04-13T05:56:40.933Z,5.63
2023-04-13T05:59:11.414Z,6.53
2023-04-13T06:01:40.854Z,5.40
2023-04-13T06:04:14.380Z,5.10
2023-04-13T06:06:45.190Z,6.57
2023-04-13T06:09:15.586Z,5.77
2023-04-13T06:11:46.933Z,4.90
2023-04-13T06:14:17.641Z,4.57
2023-04-13T06:16:46.961Z,4.43
2023-04-13T06:19:17.498Z,4.80
2023-04-13T06:21:46.548Z,3.90
2023-04-13T06:24:17.197Z,3.73
2023-04-13T06:26:46.761Z,4.40
2023-04-13T06:29:15.910Z,3.87
2023-04-13T06:31:52.693Z,4.20
2023-04-13T06:34:23.976Z,3.60
2023-04-13T06:36:53.066Z,3.20
2023-04-13T06:39:25.192Z,2.93
2023-04-13T06:42:01.385Z,3.90
2023-04-13T06:44:49.685Z,3.60
2023-04-13T06:47:22.056Z,3.43
2023-04-13T06:49:52.779Z,4.20
2023-04-13T06:52:22.024Z,3.60
2023-04-13T06:54:51.176Z,3.77
2023-04-13T06:57:34.895Z,4.17
2023-04-13T07:00:12.511Z,3.63
2023-04-13T07:02:51.442Z,3.77
2023-04-13T07:05:22.562Z,3.43
2023-04-13T07:07:53.906Z,4.00
2023-04-13T07:10:23.600Z,3.87
2023-04-13T07:12:54.165Z,3.73
2023-04-13T07:15:26.321Z,3.50
2023-04-13T07:17:56.034Z,2.33
2023-04-13T07:20:26.842Z,2.77
2023-04-13T07:22:56.158Z,2.83
2023-04-13T07:25:26.082Z,2.93
2023-04-13T07:27:55.250Z,2.77
2023-04-13T07:30:24.900Z,2.17
2023-04-13T07:32:54.018Z,2.10
2023-04-13T07:35:25.201Z,2.10
2023-04-13T07:37:54.444Z,1.93
2023-04-13T07:40:24.325Z,1.70
2023-04-13T07:42:57.320Z,1.67
2023-04-13T07:45:30.120Z,1.83
2023-04-13T07:47:59.426Z,1.70
2023-04-13T07:50:30.046Z,1.50
2023-04-13T07:52:59.173Z,1.40
2023-04-13T07:55:29.532Z,1.90
2023-04-13T07:57:59.743Z,1.27
2023-04-13T08:00:29.136Z,1.13
2023-04-13T08:03:01.180Z,1.20
2023-04-13T08:05:36.086Z,1.30
2023-04-13T08:08:05.696Z,1.67
2023-04-13T08:10:34.751Z,1.00
2023-04-13T08:13:06.890Z,1.13
2023-04-13T08:15:36.270Z,1.07
2023-04-13T08:18:05.691Z,1.20
2023-04-13T08:20:37.402Z,1.43
2023-04-13T08:23:07.629Z,1.10
2023-04-13T08:25:41.925Z,1.03
2023-04-13T08:28:11.027Z,1.23
2023-04-13T08:30:40.077Z,1.50
2023-04-13T08:33:10.002Z,0.90
2023-04-13T08:35:41.098Z,1.00
2023-04-13T08:38:14.047Z,1.00
2023-04-13T08:40:50.241Z,1.13
2023-04-13T08:43:25.815Z,0.80
2023-04-13T08:45:55.211Z,1.50
2023-04-13T08:48:24.676Z,1.53
2023-04-13T08:51:01.120Z,1.30
2023-04-13T08:53:32.818Z,1.20
2023-04-13T08:56:04.145Z,0.90
2023-04-13T08:58:36.526Z,0.90
2023-04-13T09:01:07.396Z,1.13
2023-04-13T09:03:43.948Z,1.07
2023-04-13T09:06:16.064Z,0.70
2023-04-13T09:08:46.350Z,1.07
2023-04-13T09:11:16.713Z,1.10
2023-04-13T09:13:51.925Z,0.70
2023-04-13T09:16:22.337Z,0.90
2023-04-13T09:18:55.523Z,0.80
2023-04-13T09:21:37.347Z,0.90
2023-04-13T09:24:07.562Z,0.50
2023-04-13T09:26:43.835Z,0.80
2023-04-13T09:29:19.719Z,0.60
2023-04-13T09:31:49.494Z,0.80
2023-04-13T09:34:29.690Z,0.80
2023-04-13T09:37:01.802Z,0.70
2023-04-13T09:39:31.306Z,0.90
2023-04-13T09:42:11.941Z,0.80
2023-04-13T09:44:41.174Z,0.70
2023-04-13T09:47:12.795Z,0.70
2023-04-13T09:49:43.023Z,0.70
2023-04-13T09:52:22.680Z,0.50
2023-04-13T09:54:52.434Z,0.67
2023-04-13T09:57:25.694Z,0.70
2023-04-13T09:59:56.392Z,0.70
2023-04-13T10:02:26.312Z,0.60
2023-04-13T10:04:55.847Z,0.70
2023-04-13T10:07:29.991Z,0.80
2023-04-13T10:09:59.178Z,1.00
2023-04-13T10:12:29.928Z,0.93
2023-04-13T10:15:11.440Z,0.77
2023-04-13T10:17:53.628Z,0.70
2023-04-13T10:20:24.341Z,0.50
2023-04-13T10:22:55.531Z,0.80
2023-04-13T10:25:32.646Z,0.50
2023-04-13T10:28:03.785Z,0.60
2023-04-13T10:30:32.888Z,0.60
2023-04-13T10:33:06.535Z,0.60
2023-04-13T10:35:38.965Z,0.77
2023-04-13T10:38:11.491Z,1.02
2023-04-13T10:40:44.505Z,0.50
2023-04-13T10:43:13.635Z,0.60
2023-04-13T10:45:42.729Z,0.75
2023-04-13T10:48:22.255Z,0.77
2023-04-13T10:50:59.893Z,1.00
2023-04-13T10:53:32.831Z,1.00
2023-04-13T10:56:02.394Z,1.00
2023-04-13T10:58:33.113Z,0.80
2023-04-13T11:01:03.255Z,1.30
2023-04-13T11:03:32.590Z,0.90
2023-04-13T11:06:02.354Z,1.13
2023-04-13T11:08:34.963Z,1.27
2023-04-13T11:11:04.058Z,0.63
2023-04-13T11:13:33.633Z,1.30
2023-04-13T11:16:03.817Z,1.00
2023-04-13T11:18:33.343Z,0.88
2023-04-13T11:21:05.269Z,0.75
2023-04-13T11:23:38.320Z,0.85
2023-04-13T11:26:08.277Z,0.88
2023-04-13T11:28:43.708Z,0.90
2023-04-13T11:31:13.298Z,0.50
2023-04-13T11:33:44.483Z,0.57
2023-04-13T11:36:14.194Z,0.88
2023-04-13T11:38:45.108Z,0.60
2023-04-13T11:41:17.305Z,0.50
2023-04-13T11:43:48.314Z,0.50
2023-04-13T11:46:25.423Z,0.90
2023-04-13T11:48:55.644Z,0.70
2023-04-13T11:51:26.655Z,0.80
2023-04-13T11:53:57.313Z,0.63
2023-04-13T11:56:26.951Z,0.50
2023-04-13T11:58:56.235Z,0.80
2023-04-13T12:01:32.211Z,0.68
2023-04-13T12:04:14.796Z,0.50
2023-04-13T12:06:47.540Z,0.65
2023-04-13T12:09:20.842Z,0.77
2023-04-13T12:12:08.412Z,0.70
2023-04-13T12:17:37.508Z,0.75
2023-04-13T12:20:07.613Z,0.60
2023-04-13T12:22:52.266Z,0.75
2023-04-13T12:25:35.460Z,0.70
2023-04-13T12:28:06.066Z,0.68
2023-04-13T12:30:35.297Z,0.50
2023-04-13T12:33:04.517Z,0.70
2023-04-13T12:35:33.667Z,0.50
2023-04-13T12:38:02.920Z,0.50
2023-04-13T12:40:33.477Z,0.52
2023-04-13T12:43:02.988Z,0.60
2023-04-13T12:45:32.140Z,0.65
2023-04-13T12:48:01.224Z,0.57
2023-04-13T12:50:32.542Z,0.57
2023-04-13T12:53:02.807Z,0.90
2023-04-13T12:55:33.226Z,0.50
2023-04-13T12:58:02.578Z,0.63
2023-04-13T13:00:31.709Z,0.50
2023-04-13T13:03:12.888Z,0.63
2023-04-13T13:05:43.268Z,0.45
2023-04-13T13:08:12.369Z,0.65
2023-04-13T13:10:43.676Z,0.40
2023-04-13T13:13:16.995Z,0.55
2023-04-13T13:15:46.287Z,0.82
2023-04-13T13:18:16.624Z,0.30
2023-04-13T13:20:45.788Z,0.60
2023-04-13T13:23:14.903Z,0.50
2023-04-13T13:25:52.745Z,0.60
2023-04-13T13:28:34.493Z,0.80
2023-04-13T13:31:03.606Z,0.52
2023-04-13T13:33:32.734Z,0.80
2023-04-13T13:36:02.430Z,1.00
2023-04-13T13:38:31.514Z,0.75
2023-04-13T13:41:02.001Z,0.98
2023-04-13T13:43:31.317Z,1.05
2023-04-13T13:46:00.468Z,0.90
2023-04-13T13:48:30.202Z,1.20
2023-04-13T13:51:11.518Z,1.30
2023-04-13T13:53:41.571Z,0.90
2023-04-13T13:56:11.990Z,0.90
2023-04-13T13:58:41.095Z,0.88
2023-04-13T14:01:10.224Z,0.93
2023-04-13T14:03:39.715Z,1.15
2023-04-13T14:06:09.496Z,0.90
2023-04-13T14:08:38.919Z,0.73
2023-04-13T14:11:08.059Z,0.75
2023-04-13T14:13:38.568Z,0.60
2023-04-13T14:16:08.473Z,0.88
2023-04-13T14:18:37.787Z,0.73
2023-04-13T14:21:07.363Z,0.80
2023-04-13T14:23:37.461Z,0.87
2023-04-13T14:26:06.781Z,1.07
2023-04-13T14:28:39.074Z,0.73
2023-04-13T14:31:08.248Z,0.80
2023-04-13T14:33:38.729Z,1.00
2023-04-13T14:36:08.700Z,0.73
2023-04-13T14:38:37.955Z,0.70
2023-04-13T14:41:07.165Z,0.60
2023-04-13T14:43:37.729Z,0.57
2023-04-13T14:46:06.967Z,0.50
2023-04-13T14:48:36.163Z,0.70
2023-04-13T14:51:05.386Z,0.50
2023-04-13T14:53:34.460Z,0.40
2023-04-13T14:56:03.770Z,0.63
2023-04-13T14:58:32.824Z,0.40
2023-04-13T15:01:04.614Z,0.30
2023-04-13T15:03:34.166Z,0.30
2023-04-13T15:06:05.340Z,0.20
2023-04-13T15:08:34.969Z,0.30
2023-04-13T15:11:04.303Z,0.37
2023-04-13T15:13:33.526Z,0.30
2023-04-13T15:16:04.041Z,0.20
2023-04-13T15:18:33.140Z,0.40
2023-04-13T15:21:03.852Z,0.22
2023-04-13T15:23:33.686Z,0.40
2023-04-13T15:26:02.943Z,0.20
2023-04-13T15:28:32.065Z,0.32
2023-04-13T15:31:01.422Z,0.30
2023-04-13T15:33:31.948Z,0.20
2023-04-13T15:36:01.054Z,0.25
2023-04-13T15:38:30.200Z,0.30
2023-04-13T15:40:59.338Z,0.60
2023-04-13T15:43:28.728Z,0.40
2023-04-13T15:45:57.978Z,0.40
2023-04-13T15:48:27.179Z,0.40
2023-04-13T15:51:00.768Z,0.38
2023-04-13T15:53:29.975Z,0.40
2023-04-13T15:55:59.045Z,0.47
2023-04-13T15:58:28.594Z,0.40
2023-04-13T16:01:04.393Z,0.40
2023-04-13T16:03:35.414Z,0.40
2023-04-13T16:06:06.702Z,0.30
2023-04-13T16:08:35.842Z,0.40
2023-04-13T16:11:04.948Z,0.80
2023-04-13T16:13:48.760Z,0.40
2023-04-13T16:16:18.895Z,0.75
2023-04-13T16:18:49.154Z,0.65
2023-04-13T16:21:20.028Z,0.25
2023-04-13T16:23:49.171Z,0.80
2023-04-13T16:26:20.256Z,0.30
2023-04-13T16:28:51.174Z,0.60
2023-04-13T16:31:20.352Z,0.70
2023-04-13T16:33:49.455Z,0.55
2023-04-13T16:36:19.901Z,42.15
2023-04-13T16:38:49.316Z,0.85
2023-04-13T16:41:18.468Z,0.70
2023-04-13T16:43:47.612Z,0.53
2023-04-13T16:46:16.969Z,0.60
2023-04-13T16:48:46.086Z,0.73
2023-04-13T16:51:15.364Z,0.87
2023-04-13T16:53:46.089Z,0.70
2023-04-13T16:56:17.268Z,0.33
2023-04-13T16:58:46.449Z,0.60
2023-04-13T17:01:15.659Z,0.40
2023-04-13T17:03:44.955Z,0.20
2023-04-13T17:06:14.223Z,0.20
2023-04-13T17:08:43.333Z,0.27
2023-04-13T17:11:13.729Z,0.20
2023-04-13T17:13:42.933Z,0.40
2023-04-13T17:16:12.050Z,0.27
2023-04-13T17:18:41.198Z,0.30
2023-04-13T17:21:10.324Z,0.20
2023-04-13T17:23:40.456Z,0.30
2023-04-13T17:26:09.526Z,0.50
2023-04-13T17:28:40.009Z,1.30
2023-04-13T17:31:09.195Z,1.00
2023-04-13T17:33:38.243Z,0.80
2023-04-13T17:36:07.455Z,0.70
2023-04-13T17:38:36.585Z,0.43
2023-04-13T17:41:06.565Z,0.77
2023-04-13T17:43:35.856Z,0.40
2023-04-13T17:46:06.547Z,0.70
2023-04-13T17:48:35.737Z,0.73
2023-04-13T17:51:04.936Z,1.10
2023-04-13T17:53:34.094Z,0.97
2023-04-13T17:56:03.224Z,0.50
2023-04-13T17:58:32.293Z,0.60
2023-04-13T18:01:09.413Z,0.63
2023-04-13T18:03:39.276Z,0.70
2023-04-13T18:06:08.779Z,2.67
2023-04-13T18:08:38.061Z,2.37
2023-04-13T18:11:07.234Z,1.17
2023-04-13T18:13:36.832Z,1.20
2023-04-13T18:16:06.867Z,1.13
2023-04-13T18:18:37.449Z,0.80
2023-04-13T18:21:06.700Z,0.70
2023-04-13T18:23:36.030Z,0.93
2023-04-13T18:26:05.210Z,0.97
2023-04-13T18:28:36.758Z,1.67
2023-04-13T18:31:07.076Z,2.60
2023-04-13T18:33:37.676Z,2.00
2023-04-13T18:36:07.183Z,1.23
2023-04-13T18:38:38.108Z,0.83
2023-04-13T18:41:07.223Z,0.97
2023-04-13T18:43:36.334Z,1.10
2023-04-13T18:46:05.801Z,0.90
2023-04-13T18:48:36.413Z,1.20
2023-04-13T18:51:07.827Z,1.83
2023-04-13T18:53:37.003Z,2.20
2023-04-13T18:56:06.133Z,2.47
2023-04-13T18:58:35.386Z,3.50
2023-04-13T19:01:04.502Z,4.33
2023-04-13T19:03:33.689Z,3.43
2023-04-13T19:06:04.220Z,3.70
2023-04-13T19:08:33.293Z,4.17
2023-04-13T19:11:02.361Z,3.13
2023-04-13T19:13:31.642Z,3.03
2023-04-13T19:16:04.384Z,2.90
2023-04-13T19:18:33.826Z,2.43
2023-04-13T19:21:06.424Z,2.27
2023-04-13T19:23:37.071Z,1.93
2023-04-13T19:26:07.541Z,2.00
2023-04-13T19:28:36.597Z,2.50
2023-04-13T19:31:05.699Z,1.63
2023-04-13T19:33:35.440Z,2.03
2023-04-13T19:36:06.452Z,1.90
2023-04-13T19:38:35.724Z,1.30
2023-04-13T19:41:04.799Z,1.87
2023-04-13T19:43:34.142Z,1.80
2023-04-13T19:46:03.539Z,2.00
2023-04-13T19:48:32.667Z,2.17
2023-04-13T19:51:01.923Z,1.80
2023-04-13T19:53:32.430Z,1.70
2023-04-13T19:56:01.521Z,1.57
2023-04-13T19:58:30.779Z,1.83
2023-04-13T20:01:00.273Z,2.10
2023-04-13T20:03:29.973Z,2.10
2023-04-13T20:05:59.263Z,1.60
2023-04-13T20:08:28.415Z,1.80
2023-04-13T20:10:59.950Z,1.80
2023-04-13T20:13:29.097Z,2.00
2023-04-13T20:15:58.207Z,2.13
2023-04-13T20:18:27.525Z,2.30
2023-04-13T20:20:56.694Z,2.10
2023-04-13T20:23:26.031Z,1.83
2023-04-13T20:25:55.257Z,2.30
2023-04-13T20:28:25.929Z,1.93
2023-04-13T20:30:55.136Z,2.30
2023-04-13T20:33:24.223Z,2.10
2023-04-13T20:35:54.786Z,2.30
2023-04-13T20:38:24.723Z,2.43
2023-04-13T20:40:56.961Z,2.07
2023-04-13T20:43:27.822Z,2.60
2023-04-13T20:45:57.456Z,1.80
2023-04-13T20:51:01.786Z,2.10
2023-04-13T20:53:31.864Z,3.57
2023-04-13T20:56:01.193Z,4.50
2023-04-13T20:58:33.336Z,3.50
2023-04-13T21:01:03.293Z,2.73
2023-04-13T21:03:32.692Z,2.97
2023-04-13T21:06:02.207Z,3.33
2023-04-13T21:08:31.505Z,3.30
2023-04-13T21:11:00.640Z,3.40
2023-04-13T21:13:31.615Z,4.33
2023-04-13T21:16:01.027Z,3.90
2023-04-13T21:18:30.102Z,3.47
2023-04-13T21:20:59.165Z,3.27
2023-04-13T21:23:28.275Z,2.83
2023-04-13T21:25:57.363Z,3.93
2023-04-13T21:28:26.373Z,4.13
2023-04-13T21:30:57.216Z,3.47
2023-04-13T21:33:26.403Z,3.70
2023-04-13T21:35:55.475Z,3.20
2023-04-13T21:38:24.614Z,3.83
2023-04-13T21:40:53.678Z,3.63
2023-04-13T21:43:22.818Z,3.87
2023-04-13T21:45:51.951Z,3.70
2023-04-13T21:48:22.430Z,3.60
2023-04-13T21:50:52.855Z,3.30
2023-04-13T21:53:21.936Z,3.53
2023-04-13T21:55:51.000Z,3.63
2023-04-13T21:58:20.048Z,3.30
2023-04-13T22:00:49.130Z,3.00
2023-04-13T22:03:18.469Z,3.57
2023-04-13T22:05:49.091Z,3.30
2023-04-13T22:08:18.214Z,3.23
2023-04-13T22:10:47.784Z,3.70
2023-04-13T22:13:16.870Z,3.40
2023-04-13T22:15:45.982Z,3.03
2023-04-13T22:18:15.166Z,3.10
2023-04-13T22:20:44.661Z,3.10
2023-04-13T22:23:15.520Z,2.60
2023-04-13T22:25:51.492Z,3.70
2023-04-13T22:28:20.703Z,3.40
2023-04-13T22:30:50.290Z,3.40
2023-04-13T22:33:19.476Z,3.60
2023-04-13T22:35:50.621Z,3.90
2023-04-13T22:38:21.250Z,2.83
2023-04-13T22:40:50.758Z,3.17
2023-04-13T22:43:19.830Z,3.60
2023-04-13T22:45:57.195Z,2.93
2023-04-13T22:48:28.018Z,3.40
2023-04-13T22:50:57.364Z,3.20
2023-04-13T22:53:28.130Z,3.20
2023-04-13T22:55:57.243Z,3.67
2023-04-13T22:58:26.453Z,3.93
2023-04-13T23:00:55.629Z,3.77
2023-04-13T23:03:24.825Z,3.17
2023-04-13T23:05:53.983Z,3.40
2023-04-13T23:08:23.104Z,2.03
2023-04-13T23:10:53.572Z,2.80
2023-04-13T23:13:22.751Z,2.30
2023-04-13T23:15:59.479Z,2.57
2023-04-13T23:18:28.907Z,2.47
2023-04-13T23:20:58.073Z,2.33
2023-04-13T23:23:27.126Z,2.87
2023-04-13T23:25:57.599Z,2.50
2023-04-13T23:28:26.694Z,3.23
2023-04-13T23:31:02.893Z,2.47
2023-04-13T23:33:31.965Z,2.87
2023-04-13T23:36:01.295Z,3.00
2023-04-13T23:38:30.715Z,3.43
2023-04-13T23:41:01.188Z,3.20
2023-04-13T23:43:30.424Z,3.70
2023-04-13T23:45:59.732Z,3.17
2023-04-13T23:48:28.911Z,3.70
2023-04-13T23:50:58.266Z,3.60
2023-04-13T23:53:27.338Z,3.20
2023-04-13T23:55:56.458Z,3.63
2023-04-13T23:58:26.907Z,3.90
